Time;durP1;ratioP1;P1;durP2;ratioP2;P2;SDS_P1;SDS_P2;PMS_P1;PMS_P2;Temp;Humidity;BMP_temperature;BMP_pressure;BME280_temperature;BME280_humidity;BME280_pressure;Samples;Min_cycle;Max_cycle;Signal;HPM_P1;HPM_P2
2021/05/18 00:02:17;;;;;;;3.35;1.80;;;;;;;6.98;77.82;100570.00;5009920;28;20060;-86
2021/05/18 00:04:43;;;;;;;2.88;1.45;;;;;;;6.78;77.62;100540.00;5013557;28;20395;-85
2021/05/18 00:07:14;;;;;;;3.53;1.60;;;;;;;6.98;77.24;100562.81;5028681;28;20025;-86
2021/05/18 00:12:24;;;;;;;4.50;1.70;;;;;;;7.01;76.79;100557.19;5023724;28;20049;-85
2021/05/18 00:14:50;;;;;;;2.83;1.83;;;;;;;7.03;77.05;100565.88;5015348;28;20476;-85
2021/05/18 00:17:15;;;;;;;2.38;1.45;;;;;;;6.75;77.39;100562.50;5027394;28;20033;-85
2021/05/18 00:19:41;;;;;;;2.85;1.60;;;;;;;6.80;77.88;100578.06;5029365;28;20036;-85
2021/05/18 00:22:06;;;;;;;3.17;1.80;;;;;;;6.74;77.51;100554.66;5012150;28;20028;-85
2021/05/18 00:24:32;;;;;;;3.38;1.73;;;;;;;6.74;77.69;100560.00;5026577;28;20025;-84
2021/05/18 00:27:02;;;;;;;6.45;1.60;;;;;;;6.77;77.59;100562.34;5014452;28;20038;-86
2021/05/18 00:29:27;;;;;;;4.85;2.00;;;;;;;6.89;77.40;100570.97;5032723;28;20029;-86
2021/05/18 00:31:53;;;;;;;2.63;1.40;;;;;;;6.80;77.53;100543.31;5026261;28;20032;-86
2021/05/18 00:34:18;;;;;;;4.55;1.98;;;;;;;7.03;76.74;100568.53;5018103;28;20472;-85
2021/05/18 00:36:44;;;;;;;4.38;1.85;;;;;;;7.08;77.04;100559.22;5030004;28;20033;-84
2021/05/18 00:39:09;;;;;;;4.80;2.40;;;;;;;7.05;77.48;100541.66;5009805;28;20033;-85
2021/05/18 00:41:34;;;;;;;4.15;2.03;;;;;;;7.08;77.74;100545.84;5031559;28;20026;-85
2021/05/18 00:44:00;;;;;;;3.10;1.80;;;;;;;7.21;78.00;100551.59;5026450;28;20029;-85
2021/05/18 00:46:26;;;;;;;3.03;1.77;;;;;;;7.34;78.65;100562.72;5024970;28;20021;-84
2021/05/18 00:48:58;;;;;;;4.93;2.10;;;;;;;7.47;79.06;100573.81;5005700;28;20170;-85
2021/05/18 00:51:25;;;;;;;3.78;1.88;;;;;;;7.39;78.64;100560.38;5019607;28;20040;-86
2021/05/18 00:53:55;;;;;;;5.50;1.70;;;;;;;7.19;79.26;100556.28;5026342;28;20025;-85
2021/05/18 00:58:47;;;;;;;4.35;2.25;;;;;;;6.93;80.91;100535.75;5025788;28;20029;-85
2021/05/18 01:01:20;;;;;;;3.17;1.98;;;;;;;7.21;80.33;100565.81;5027759;28;20029;-86
2021/05/18 01:03:48;;;;;;;4.15;1.90;;;;;;;7.16;80.03;100545.91;5029090;28;20044;-85
2021/05/18 01:06:19;;;;;;;3.58;1.67;;;;;;;7.32;79.58;100558.50;5027404;28;20033;-86
2021/05/18 01:08:46;;;;;;;2.55;1.40;;;;;;;7.36;79.26;100563.38;5023232;28;20531;-85
2021/05/18 01:11:14;;;;;;;3.53;1.55;;;;;;;7.34;79.15;100557.34;5010542;28;20037;-85
2021/05/18 01:13:40;;;;;;;2.80;1.67;;;;;;;7.30;79.05;100549.81;5012741;28;20104;-86
2021/05/18 01:16:08;;;;;;;3.05;1.55;;;;;;;7.22;79.58;100553.28;5029335;28;20120;-85
2021/05/18 01:18:41;;;;;;;4.22;1.70;;;;;;;7.13;79.54;100549.72;5027881;28;20026;-86
2021/05/18 01:21:08;;;;;;;2.15;1.50;;;;;;;6.91;78.92;100543.09;5027741;28;20040;-86
2021/05/18 01:23:34;;;;;;;2.83;1.30;;;;;;;6.95;79.39;100557.78;5025761;28;20889;-86
2021/05/18 01:26:00;;;;;;;3.63;1.50;;;;;;;6.94;80.01;100561.47;5013911;28;20120;-86
2021/05/18 01:28:28;;;;;;;2.15;1.40;;;;;;;6.86;80.54;100560.59;5010370;28;20116;-85
2021/05/18 01:30:55;;;;;;;2.42;1.40;;;;;;;6.75;81.23;100551.81;5005966;28;20099;-86
2021/05/18 01:33:20;;;;;;;3.05;1.50;;;;;;;6.89;80.73;100558.44;5025233;28;20078;-85
2021/05/18 01:35:47;;;;;;;3.08;1.80;;;;;;;6.84;81.02;100552.72;5027553;28;20384;-85
2021/05/18 01:38:16;;;;;;;3.28;1.73;;;;;;;7.05;80.57;100553.19;5025090;28;20017;-86
2021/05/18 01:43:09;;;;;;;3.15;1.70;;;;;;;7.20;80.31;100553.44;5025879;28;20029;-86
2021/05/18 01:45:34;;;;;;;3.92;1.67;;;;;;;7.35;80.67;100553.66;5029182;28;20156;-85
2021/05/18 01:48:06;;;;;;;4.00;1.50;;;;;;;7.27;79.18;100533.06;5008703;28;20093;-85
2021/05/18 01:50:32;;;;;;;2.08;1.35;;;;;;;7.48;79.60;100558.59;5023694;28;20044;-86
2021/05/18 01:52:58;;;;;;;2.80;1.60;;;;;;;7.56;79.02;100561.28;5029284;28;20468;-86
2021/05/18 01:55:37;;;;;;;3.30;1.63;;;;;;;7.56;79.06;100541.72;5016197;28;20029;-85
2021/05/18 01:58:04;;;;;;;4.07;1.80;;;;;;;7.63;78.69;100548.13;5008682;28;20034;-85
2021/05/18 02:00:31;;;;;;;3.38;1.63;;;;;;;7.62;79.91;100549.09;5007343;28;20492;-84
2021/05/18 02:02:57;;;;;;;4.85;1.80;;;;;;;7.62;80.52;100546.41;5023686;28;20029;-86
2021/05/18 02:05:28;;;;;;;3.08;1.92;;;;;;;7.64;81.46;100544.44;5008246;28;20163;-85
2021/05/18 02:07:56;;;;;;;1.83;1.60;;;;;;;7.70;81.97;100541.13;5011031;28;20078;-86
2021/05/18 02:10:22;;;;;;;3.88;1.90;;;;;;;7.82;81.97;100547.00;5025842;28;20144;-85
2021/05/18 02:12:47;;;;;;;2.65;1.77;;;;;;;7.81;82.36;100548.03;5024635;28;20526;-85
2021/05/18 02:18:14;;;;;;;4.00;1.67;;;;;;;7.89;82.88;100550.72;5027489;28;20033;-84
2021/05/18 02:20:45;;;;;;;3.53;1.80;;;;;;;7.90;83.08;100542.50;5020852;28;20028;-85
2021/05/18 02:25:54;;;;;;;4.88;2.15;;;;;;;7.90;82.64;100544.34;5022281;28;20036;-86
2021/05/18 02:28:20;;;;;;;3.42;1.70;;;;;;;7.94;83.34;100551.06;5008539;28;20021;-84
2021/05/18 02:30:48;;;;;;;5.40;2.22;;;;;;;7.84;83.04;100537.81;5026827;28;20044;-86
2021/05/18 02:33:14;;;;;;;5.07;2.15;;;;;;;7.77;82.94;100525.25;5011270;28;20036;-84
2021/05/18 02:35:39;;;;;;;3.25;1.80;;;;;;;7.88;83.50;100543.66;5022610;28;20026;-85
2021/05/18 02:38:05;;;;;;;3.75;1.77;;;;;;;7.82;82.77;100545.16;5027193;28;20026;-85
2021/05/18 02:40:33;;;;;;;6.43;1.80;;;;;;;7.72;83.46;100533.75;5008087;28;20692;-85
2021/05/18 02:42:59;;;;;;;3.13;1.90;;;;;;;7.75;83.08;100538.78;5031009;28;20535;-84
2021/05/18 02:50:43;;;;;;;2.60;2.00;;;;;;;7.61;84.10;100534.88;5026564;28;20617;-85
2021/05/18 02:53:09;;;;;;;3.13;1.92;;;;;;;7.49;84.21;100534.34;5023064;28;20053;-85
2021/05/18 02:58:18;;;;;;;3.63;2.03;;;;;;;7.41;84.91;100541.50;5026977;28;20033;-86
2021/05/18 03:00:44;;;;;;;4.47;2.10;;;;;;;7.49;84.74;100546.91;5026590;28;20029;-85
2021/05/18 03:03:10;;;;;;;3.15;1.70;;;;;;;7.44;84.94;100547.38;5012202;28;20029;-84
2021/05/18 03:05:35;;;;;;;4.03;1.85;;;;;;;7.32;84.88;100537.13;5009130;28;20029;-85
2021/05/18 03:08:01;;;;;;;4.05;1.85;;;;;;;7.37;85.39;100543.66;5007645;28;20084;-84
2021/05/18 03:10:27;;;;;;;2.10;1.60;;;;;;;7.41;85.23;100547.69;5010948;28;20029;-84
2021/05/18 03:12:52;;;;;;;2.47;1.77;;;;;;;7.36;84.99;100543.84;5027883;28;20029;-83
2021/05/18 03:15:18;;;;;;;4.95;1.75;;;;;;;7.44;85.17;100544.69;5012422;28;20026;-84
2021/05/18 03:17:43;;;;;;;3.10;1.98;;;;;;;7.36;84.86;100544.66;5011413;28;20369;-84
2021/05/18 03:20:13;;;;;;;2.72;1.42;;;;;;;7.24;85.32;100533.41;5012021;28;20124;-84
2021/05/18 03:22:39;;;;;;;3.55;1.50;;;;;;;7.30;85.21;100552.47;5027290;28;20029;-85
2021/05/18 03:25:06;;;;;;;6.95;2.00;;;;;;;7.27;85.74;100554.47;5015861;28;20072;-85
2021/05/18 03:27:31;;;;;;;3.33;1.70;;;;;;;7.26;85.39;100536.75;5022798;28;20025;-84
2021/05/18 03:30:00;;;;;;;2.00;1.40;;;;;;;7.34;85.62;100557.34;5006299;28;20392;-84
2021/05/18 03:35:23;;;;;;;5.47;1.80;;;;;;;7.33;85.65;100555.69;5026580;28;20037;-86
2021/05/18 03:37:57;;;;;;;3.78;1.67;;;;;;;7.29;85.47;100534.78;5025838;28;20033;-85
2021/05/18 03:40:24;;;;;;;;;;;;;;;7.39;85.71;100548.88;5009281;28;20061;-84
2021/05/18 03:43:24;;;;;;;3.75;1.40;;;;;;;7.07;85.63;100512.94;5011180;28;20414;-84
2021/05/18 03:45:39;;;;;;;5.35;1.75;;;;;;;7.14;86.09;100530.00;5021449;28;20033;-84
2021/05/18 03:53:49;;;;;;;2.22;1.63;;;;;;;7.24;85.75;100530.72;5031582;28;20591;-84
2021/05/18 04:04:27;;;;;;;3.13;1.30;;;;;;;7.07;85.89;100538.84;5034954;28;20104;-84
2021/05/18 04:17:49;;;;;;;3.15;1.80;;;;;;;7.12;85.69;100537.38;5027752;28;20036;-84
2021/05/18 04:20:27;;;;;;;3.33;1.52;;;;;;;7.03;85.32;100533.78;5012748;28;20175;-85
2021/05/18 04:26:03;;;;;;;3.10;1.92;;;;;;;7.01;85.77;100524.25;5027407;28;20876;-84
2021/05/18 05:01:10;;;;;;;4.25;1.92;;;;;;;6.88;85.78;100551.41;5029719;28;20087;-85
2021/05/18 05:06:19;;;;;;;2.65;1.70;;;;;;;6.95;85.33;100546.28;5029755;28;20034;-85
2021/05/18 05:09:04;;;;;;;3.20;1.58;;;;;;;7.03;85.54;100549.00;5024875;28;20487;-85
2021/05/18 05:16:42;;;;;;;4.63;1.80;;;;;;;7.00;84.92;100543.97;5029818;28;20017;-85
2021/05/18 05:19:08;;;;;;;4.63;1.73;;;;;;;6.96;84.88;100543.44;5017605;28;20029;-85
2021/05/18 05:21:33;;;;;;;2.33;1.50;;;;;;;6.90;85.16;100538.72;5018058;28;20504;-85
2021/05/18 05:23:59;;;;;;;4.80;1.80;;;;;;;6.96;85.22;100556.81;5026434;28;20388;-86
2021/05/18 05:26:24;;;;;;;3.42;1.88;;;;;;;6.89;85.42;100549.59;5014386;28;20037;-85
2021/05/18 05:28:50;;;;;;;2.05;1.58;;;;;;;6.59;84.75;100509.81;5021147;28;20473;-85
2021/05/18 05:31:15;;;;;;;2.83;1.55;;;;;;;6.84;85.08;100547.38;5011057;28;20487;-85
2021/05/18 05:33:41;;;;;;;3.75;2.10;;;;;;;6.80;84.51;100546.00;5027625;28;20017;-84
2021/05/18 05:36:06;;;;;;;3.55;1.60;;;;;;;7.03;85.32;100562.34;5027448;28;20026;-85
2021/05/18 05:38:33;;;;;;;4.30;1.80;;;;;;;7.06;84.88;100559.38;5010608;28;20029;-86
2021/05/18 05:40:59;;;;;;;3.03;2.00;;;;;;;7.13;84.23;100564.94;5026557;28;20032;-85
2021/05/18 05:43:24;;;;;;;6.18;2.20;;;;;;;7.20;84.35;100558.78;5009957;28;20034;-85
2021/05/18 05:45:50;;;;;;;4.40;1.70;;;;;;;7.16;84.56;100553.91;5029737;28;20033;-86
2021/05/18 05:48:18;;;;;;;3.00;1.88;;;;;;;7.25;84.93;100569.00;5034519;28;20391;-85
2021/05/18 05:50:43;;;;;;;2.95;1.77;;;;;;;7.10;84.96;100539.34;5028835;28;20022;-85
2021/05/18 05:53:09;;;;;;;3.17;1.90;;;;;;;7.18;85.36;100550.09;5010813;28;20469;-85
2021/05/18 05:55:35;;;;;;;3.25;1.88;;;;;;;7.25;85.79;100548.47;5027583;28;20029;-85
2021/05/18 05:58:00;;;;;;;2.88;1.65;;;;;;;7.48;85.62;100571.97;5012471;28;20109;-85
2021/05/18 06:00:25;;;;;;;3.58;2.17;;;;;;;7.49;85.15;100550.41;5008948;28;20427;-85
2021/05/18 06:02:51;;;;;;;3.17;2.28;;;;;;;7.73;84.84;100564.88;5026661;28;20400;-86
2021/05/18 06:05:16;;;;;;;3.97;1.88;;;;;;;7.86;85.41;100567.94;5012411;28;20041;-85
2021/05/18 06:07:42;;;;;;;4.57;2.22;;;;;;;8.10;84.25;100569.84;5023428;28;20009;-85
2021/05/18 06:10:15;;;;;;;3.38;2.00;;;;;;;8.36;84.49;100558.13;5022382;28;20412;-86
2021/05/18 06:12:59;;;;;;;4.10;2.20;;;;;;;8.58;83.89;100573.59;5010063;28;20025;-85
2021/05/18 06:29:48;;;;;;;3.75;1.75;;;;;;;8.89;81.67;100578.28;5025135;28;20119;-85
2021/05/18 06:47:33;;;;;;;4.90;1.65;;;;;;;9.64;78.95;100585.13;5019077;28;20087;-85
2021/05/18 06:52:36;;;;;;;3.17;1.60;;;;;;;9.82;78.35;100592.94;5019389;28;20033;-85
2021/05/18 06:55:03;;;;;;;3.00;1.27;;;;;;;9.80;77.91;100594.97;5011223;28;20026;-85
2021/05/18 06:57:30;;;;;;;3.00;1.38;;;;;;;9.78;77.86;100594.31;5007002;28;20022;-84
2021/05/18 07:00:09;;;;;;;1.95;1.08;;;;;;;9.72;77.67;100566.31;5007159;28;20366;-85
2021/05/18 07:02:35;;;;;;;5.05;1.55;;;;;;;9.96;77.57;100580.63;5006101;28;20071;-86
2021/05/18 07:05:02;;;;;;;5.15;1.33;;;;;;;10.09;77.61;100594.31;5027973;28;20025;-85
2021/05/18 07:07:29;;;;;;;6.00;1.35;;;;;;;10.11;76.88;100581.56;5027404;28;21003;-85
2021/05/18 07:09:55;;;;;;;2.03;1.10;;;;;;;10.09;77.01;100597.00;5010884;28;20029;-84
2021/05/18 07:12:20;;;;;;;1.77;1.00;;;;;;;10.00;77.07;100590.84;5026867;28;20209;-84
2021/05/18 07:14:46;;;;;;;6.00;1.35;;;;;;;9.91;76.77;100594.56;5014226;28;20033;-84
2021/05/18 07:17:11;;;;;;;2.53;1.00;;;;;;;9.94;76.96;100591.53;5014327;28;20030;-83
2021/05/18 07:19:37;;;;;;;4.53;1.00;;;;;;;10.15;76.11;100603.50;5013499;28;20071;-85
2021/05/18 07:22:03;;;;;;;2.10;1.10;;;;;;;10.31;76.07;100587.31;5038836;28;20067;-83
2021/05/18 07:24:30;;;;;;;3.92;1.00;;;;;;;10.49;75.17;100592.41;5032549;28;20032;-86
2021/05/18 07:26:56;;;;;;;2.20;1.05;;;;;;;10.62;74.79;100589.13;5016915;28;20030;-84
2021/05/18 07:29:22;;;;;;;3.92;1.30;;;;;;;10.84;74.51;100599.00;5012738;28;20429;-84
2021/05/18 07:31:47;;;;;;;3.28;1.17;;;;;;;10.94;73.93;100596.06;5015710;28;20123;-85
2021/05/18 07:34:13;;;;;;;3.13;0.98;;;;;;;10.87;73.40;100589.75;5029971;28;20030;-84
2021/05/18 07:36:39;;;;;;;2.47;1.00;;;;;;;10.90;73.48;100595.63;5024345;28;20113;-83
2021/05/18 07:39:05;;;;;;;2.88;1.20;;;;;;;11.07;72.91;100608.91;5025951;28;20029;-84
2021/05/18 07:41:32;;;;;;;2.05;1.00;;;;;;;11.14;72.75;100602.63;5011283;28;20108;-82
2021/05/18 07:43:58;;;;;;;3.90;1.17;;;;;;;11.10;72.40;100600.47;5025462;28;20104;-80
2021/05/18 07:46:24;;;;;;;2.92;1.13;;;;;;;11.16;72.29;100603.25;5029403;28;20021;-81
2021/05/18 08:00:24;;;;;;;6.07;1.20;;;;;;;12.06;70.17;100620.25;5021314;28;20399;-80
2021/05/18 08:05:17;;;;;;;3.33;1.17;;;;;;;12.04;70.04;100623.16;5020978;28;20041;-79
2021/05/18 08:05:19;;;;;;;3.30;1.20;;;;;;;11.80;70.39;100616.19;5025859;28;20021;-80
2021/05/18 08:07:45;;;;;;;1.88;1.20;;;;;;;11.57;70.67;100618.97;5028010;28;20018;-85
2021/05/18 08:12:39;;;;;;;1.85;1.20;;;;;;;11.49;71.69;100631.72;5026200;28;20029;-85
2021/05/18 08:17:59;;;;;;;5.43;1.05;;;;;;;11.56;72.01;100625.38;5026547;28;20071;-84
2021/05/18 08:56:50;;;;;;;1.95;0.80;;;;;;;13.76;60.68;100630.25;5032959;28;20059;-85
2021/05/18 09:44:14;;;;;;;5.38;3.28;;;;;;;15.03;53.12;100621.50;5024301;28;20080;-84
2021/05/18 10:34:27;;;;;;;1.70;0.82;;;;;;;12.50;67.27;100654.34;5032173;28;20129;-85
2021/05/18 10:36:53;;;;;;;0.70;0.60;;;;;;;12.83;65.97;100643.88;5034611;28;20456;-85
2021/05/18 10:39:25;;;;;;;0.95;0.80;;;;;;;13.27;64.62;100656.34;5034141;28;20025;-85
2021/05/18 10:41:51;;;;;;;1.33;0.70;;;;;;;13.67;62.30;100650.38;5031845;28;20484;-85
2021/05/18 10:44:16;;;;;;;2.05;0.80;;;;;;;13.99;61.45;100655.13;5036104;28;20030;-84
2021/05/18 10:46:52;;;;;;;3.40;0.77;;;;;;;14.25;60.71;100638.19;5028792;28;20481;-85
2021/05/18 10:49:40;;;;;;;2.63;1.08;;;;;;;14.83;58.55;100658.53;5027049;28;20022;-85
2021/05/18 10:52:07;;;;;;;1.27;0.50;;;;;;;15.22;56.46;100656.91;5033634;28;20084;-84
2021/05/18 10:54:42;;;;;;;1.08;0.60;;;;;;;14.73;56.63;100653.53;5031851;28;20377;-85
2021/05/18 10:57:18;;;;;;;1.52;0.47;;;;;;;14.47;58.80;100660.53;5027682;28;20025;-84
2021/05/18 10:59:48;;;;;;;1.45;0.52;;;;;;;14.21;58.01;100673.94;5031560;28;20104;-85
2021/05/18 11:02:30;;;;;;;2.15;0.50;;;;;;;13.94;58.76;100673.81;5036898;28;20045;-85
2021/05/18 11:04:58;;;;;;;0.75;0.50;;;;;;;13.72;60.70;100669.53;5033186;28;20056;-85
2021/05/18 11:07:36;;;;;;;1.48;0.60;;;;;;;13.54;61.51;100670.88;5034902;28;20053;-85
2021/05/18 11:10:10;;;;;;;1.95;0.70;;;;;;;14.20;61.23;100672.28;5032087;28;20088;-85
2021/05/18 11:12:36;;;;;;;4.15;0.70;;;;;;;14.97;58.96;100664.81;5011497;28;20025;-85
2021/05/18 11:15:01;;;;;;;3.03;0.80;;;;;;;15.67;55.85;100676.03;5032165;28;20021;-86
2021/05/18 11:17:32;;;;;;;1.45;0.70;;;;;;;15.85;53.49;100676.25;5033667;28;20033;-86
2021/05/18 11:20:08;;;;;;;1.00;0.50;;;;;;;16.11;49.21;100675.28;5011804;28;20104;-85
2021/05/18 11:25:31;;;;;;;0.43;0.40;;;;;;;17.25;49.30;100673.63;5033083;28;20090;-86
2021/05/18 11:28:07;;;;;;;0.47;0.40;;;;;;;17.59;49.30;100682.28;5030765;28;20881;-85
2021/05/18 11:30:33;;;;;;;2.70;0.65;;;;;;;17.27;47.56;100674.22;5032247;28;20025;-85
2021/05/18 11:32:59;;;;;;;0.73;0.60;;;;;;;16.85;48.36;100671.19;5030916;28;20037;-85
2021/05/18 11:35:25;;;;;;;1.48;0.60;;;;;;;16.49;50.75;100685.38;5012509;28;20017;-86
2021/05/18 11:38:10;;;;;;;1.75;0.60;;;;;;;16.25;49.31;100684.25;5014303;28;20056;-84
2021/05/18 11:40:54;;;;;;;1.38;0.50;;;;;;;16.22;47.40;100676.50;5033093;28;20091;-85
2021/05/18 11:43:40;;;;;;;0.52;0.45;;;;;;;16.14;47.60;100679.47;5031604;28;20037;-85
2021/05/18 11:46:09;;;;;;;1.33;0.52;;;;;;;15.94;47.44;100677.66;5030626;28;20037;-85
2021/05/18 11:48:36;;;;;;;0.80;0.50;;;;;;;15.83;47.21;100683.75;5010537;28;20361;-86
2021/05/18 11:51:07;;;;;;;5.75;0.80;;;;;;;15.56;46.75;100685.66;5011194;28;20084;-85
2021/05/18 11:53:39;;;;;;;0.80;0.50;;;;;;;15.41;47.04;100674.19;5006406;28;20468;-85
2021/05/18 11:56:24;;;;;;;0.70;0.50;;;;;;;15.32;48.00;100687.94;5017843;28;20053;-85
2021/05/18 11:59:03;;;;;;;1.25;0.80;;;;;;;15.30;48.04;100684.59;5027220;28;20025;-85
2021/05/18 12:01:30;;;;;;;0.63;0.52;;;;;;;15.53;47.43;100691.47;5038975;28;20025;-86
2021/05/18 12:04:07;;;;;;;1.30;0.60;;;;;;;15.54;46.71;100685.84;5019257;28;20029;-85
2021/05/18 12:06:35;;;;;;;1.40;0.57;;;;;;;15.48;46.64;100677.69;5027046;28;20036;-86
2021/05/18 12:09:01;;;;;;;0.95;0.70;;;;;;;15.79;46.90;100682.50;5019294;28;20021;-86
2021/05/18 12:11:26;;;;;;;2.50;0.57;;;;;;;16.53;46.92;100689.31;5037628;28;20459;-85
2021/05/18 12:13:52;;;;;;;1.10;0.50;;;;;;;17.32;45.77;100682.53;5034404;28;20025;-85
2021/05/18 12:16:21;;;;;;;1.17;0.70;;;;;;;18.08;45.06;100691.44;5036296;28;20391;-86
2021/05/18 12:18:57;;;;;;;1.45;0.60;;;;;;;18.46;41.52;100688.44;5034710;28;20025;-85
2021/05/18 12:21:28;;;;;;;3.05;0.73;;;;;;;17.97;41.67;100673.16;5036344;28;20615;-85
2021/05/18 12:24:10;;;;;;;1.13;0.40;;;;;;;17.54;42.11;100699.28;5047525;28;20033;-85
2021/05/18 12:26:50;;;;;;;1.83;0.60;;;;;;;16.97;41.98;100706.63;5000848;28;20535;-85
2021/05/18 12:29:38;;;;;;;1.05;0.60;;;;;;;17.39;43.03;100706.94;5005918;28;20030;-86
2021/05/18 12:32:22;;;;;;;0.80;0.50;;;;;;;17.50;43.83;100706.22;5015921;28;20053;-86
2021/05/18 12:34:58;;;;;;;1.75;0.60;;;;;;;17.36;43.20;100699.25;5028011;28;20025;-85
2021/05/18 12:37:51;;;;;;;0.95;0.47;;;;;;;17.83;43.47;100709.69;5016913;28;20052;-86
2021/05/18 12:40:25;;;;;;;1.92;1.00;;;;;;;18.33;42.48;100706.84;5016402;28;20125;-86
2021/05/18 12:42:51;;;;;;;2.72;1.40;;;;;;;18.14;42.76;100706.03;5036159;28;20036;-85
2021/05/18 12:45:18;;;;;;;2.15;0.65;;;;;;;17.52;42.30;100714.16;5034701;28;20029;-85
2021/05/18 12:47:44;;;;;;;1.63;0.70;;;;;;;16.80;42.16;100710.91;5035248;28;20018;-86
2021/05/18 12:50:12;;;;;;;1.83;0.80;;;;;;;16.63;43.44;100695.09;5018318;28;20383;-85
2021/05/18 12:53:20;;;;;;;1.85;0.80;;;;;;;16.58;43.95;100694.91;5018084;28;20033;-85
2021/05/18 12:55:46;;;;;;;2.83;0.60;;;;;;;16.59;42.91;100704.75;5024573;28;20111;-86
2021/05/18 12:58:11;;;;;;;2.30;0.63;;;;;;;16.39;43.59;100707.53;5032892;28;20049;-86
2021/05/18 13:00:38;;;;;;;2.40;0.52;;;;;;;16.81;43.70;100716.13;5034112;28;20055;-85
2021/05/18 13:03:19;;;;;;;2.00;0.60;;;;;;;16.90;42.15;100716.69;5018440;28;20036;-86
2021/05/18 13:05:52;;;;;;;1.65;0.52;;;;;;;16.84;41.60;100706.72;5018334;28;20079;-86
2021/05/18 13:08:22;;;;;;;0.40;0.40;;;;;;;17.16;40.78;100704.00;5036485;28;20013;-86
2021/05/18 13:13:38;;;;;;;0.88;0.60;;;;;;;17.72;41.50;100720.22;5035831;28;20416;-86
2021/05/18 13:16:30;;;;;;;2.22;0.60;;;;;;;18.27;39.90;100727.63;5044171;28;20388;-86
2021/05/18 13:19:00;;;;;;;;;;;;;;;17.88;40.58;100718.84;5013581;28;20037;-84
2021/05/18 13:21:34;;;;;;;0.57;0.40;;;;;;;17.91;39.69;100712.13;5034233;28;19913;-85
2021/05/18 13:26:34;;;;;;;0.40;0.40;;;;;;;18.52;38.72;100715.81;5034230;28;20480;-86
2021/05/18 13:29:08;;;;;;;1.38;0.65;;;;;;;18.93;37.96;100700.63;5033610;28;20108;-85
2021/05/18 13:31:36;;;;;;;2.10;0.43;;;;;;;19.28;36.92;100712.41;5034138;28;20013;-86
2021/05/18 13:34:02;;;;;;;2.60;0.47;;;;;;;19.46;37.03;100719.69;5033023;28;20026;-86
2021/05/18 13:36:33;;;;;;;0.68;0.40;;;;;;;19.03;36.63;100693.53;5033627;28;20037;-85
2021/05/18 13:38:59;;;;;;;3.70;0.60;;;;;;;18.48;37.43;100696.38;5033291;28;20686;-85
2021/05/18 13:41:25;;;;;;;1.60;0.40;;;;;;;19.04;37.71;100729.78;5032114;28;20071;-86
2021/05/18 13:43:50;;;;;;;0.40;0.40;;;;;;;19.21;36.89;100700.81;5031944;28;20025;-86
2021/05/18 13:46:16;;;;;;;0.63;0.50;;;;;;;19.45;35.91;100717.19;5033344;28;20021;-86
2021/05/18 13:48:41;;;;;;;0.68;0.35;;;;;;;19.60;37.12;100725.72;5015251;28;20024;-86
2021/05/18 13:51:13;;;;;;;1.10;0.47;;;;;;;19.86;35.93;100724.47;5031712;28;20843;-86
2021/05/18 13:53:38;;;;;;;1.23;0.50;;;;;;;20.06;35.85;100721.38;5016781;28;20030;-86
2021/05/18 13:56:04;;;;;;;1.45;0.60;;;;;;;20.38;35.43;100719.03;5020962;28;20037;-85
2021/05/18 13:58:29;;;;;;;0.95;0.43;;;;;;;20.15;35.68;100730.00;5030779;28;20131;-85
2021/05/18 14:00:54;;;;;;;0.98;0.47;;;;;;;19.75;35.71;100720.66;5031103;28;20078;-86
2021/05/18 14:03:20;;;;;;;1.38;0.60;;;;;;;19.91;36.41;100721.84;5031198;28;20102;-86
2021/05/18 14:05:45;;;;;;;0.40;0.40;;;;;;;20.08;35.79;100730.13;5033012;28;20389;-86
2021/05/18 14:08:35;;;;;;;0.98;0.47;;;;;;;19.97;35.68;100740.00;5011251;28;20033;-86
2021/05/18 14:11:10;;;;;;;0.57;0.47;;;;;;;19.79;35.71;100747.47;5026057;28;20384;-86
2021/05/18 14:13:42;;;;;;;1.42;0.50;;;;;;;19.32;37.66;100731.88;5015470;28;20052;-85
2021/05/18 14:16:09;;;;;;;1.88;0.63;;;;;;;19.57;37.78;100722.66;5031705;28;20033;-85
2021/05/18 14:18:35;;;;;;;0.55;0.45;;;;;;;19.36;36.42;100716.69;5031497;28;20088;-85
2021/05/18 14:21:02;;;;;;;1.65;0.40;;;;;;;19.58;36.56;100711.50;5014856;28;20037;-86
2021/05/18 14:23:36;;;;;;;0.32;0.32;;;;;;;19.99;36.31;100728.84;5015017;28;20025;-86
2021/05/18 14:26:02;;;;;;;2.38;0.50;;;;;;;20.27;34.91;100739.03;5031472;28;20048;-85
2021/05/18 14:28:27;;;;;;;1.58;0.40;;;;;;;20.09;33.87;100715.44;5013330;28;20033;-86
2021/05/18 14:30:53;;;;;;;0.50;0.50;;;;;;;19.92;34.21;100707.13;5010862;28;20032;-85
2021/05/18 14:33:18;;;;;;;1.20;0.93;;;;;;;19.73;34.95;100735.63;5027394;28;20492;-85
2021/05/18 14:35:44;;;;;;;2.58;1.63;;;;;;;20.25;36.50;100737.59;5022529;28;20025;-86
2021/05/18 14:54:16;;;;;;;6.05;4.20;;;;;;;19.72;36.96;100751.16;5024584;28;20087;-84
2021/05/18 14:56:42;;;;;;;3.40;1.63;;;;;;;18.81;37.83;100742.25;5010356;28;20059;-85
2021/05/18 14:59:08;;;;;;;4.30;3.47;;;;;;;18.09;39.59;100752.13;5032931;28;20053;-86
2021/05/18 15:01:33;;;;;;;3.60;2.63;;;;;;;18.65;38.66;100742.88;5035369;28;20602;-86
2021/05/18 15:03:59;;;;;;;3.17;1.88;;;;;;;18.41;38.80;100758.25;5030848;28;20037;-85
2021/05/18 15:06:24;;;;;;;2.75;1.77;;;;;;;18.25;39.66;100748.78;5012009;28;20021;-84
2021/05/18 15:08:49;;;;;;;4.95;3.42;;;;;;;18.64;40.01;100757.56;5010606;28;20029;-86
2021/05/18 15:11:15;;;;;;;3.20;2.67;;;;;;;18.59;39.64;100760.13;5025156;28;20388;-85
2021/05/18 15:13:40;;;;;;;4.38;3.45;;;;;;;18.76;39.36;100735.84;5028657;28;20018;-86
2021/05/18 15:16:06;;;;;;;5.13;3.60;;;;;;;18.51;39.60;100765.88;5011602;28;20017;-85
2021/05/18 15:18:33;;;;;;;1.58;0.65;;;;;;;18.83;38.38;100778.28;5017032;28;20930;-85
2021/05/18 15:20:59;;;;;;;8.15;3.60;;;;;;;18.33;38.50;100764.81;5006909;28;20029;-86
2021/05/18 15:23:27;;;;;;;2.65;1.40;;;;;;;19.19;37.03;100771.06;5027647;28;20029;-85
2021/05/18 15:25:52;;;;;;;2.78;1.73;;;;;;;20.17;35.54;100774.28;5011889;28;20029;-86
2021/05/18 15:28:18;;;;;;;2.47;1.85;;;;;;;20.06;34.97;100762.31;5010597;28;20032;-85
2021/05/18 15:30:43;;;;;;;0.77;0.60;;;;;;;19.16;35.73;100771.53;5020355;28;20021;-85
2021/05/18 15:33:09;;;;;;;2.45;2.13;;;;;;;18.68;37.28;100766.91;5026896;28;20541;-86
2021/05/18 15:35:34;;;;;;;2.35;2.15;;;;;;;19.63;36.41;100768.06;5027991;28;20024;-85
2021/05/18 15:38:00;;;;;;;4.50;2.70;;;;;;;20.50;35.98;100773.63;5016789;28;20073;-85
2021/05/18 15:40:25;;;;;;;5.57;3.03;;;;;;;21.18;35.15;100774.72;5010570;28;20029;-85
2021/05/18 15:42:51;;;;;;;4.60;2.33;;;;;;;21.90;33.03;100771.28;5027237;28;20029;-85
2021/05/18 15:45:16;;;;;;;5.38;4.03;;;;;;;21.76;32.16;100783.66;5026844;28;20030;-85
2021/05/18 15:47:42;;;;;;;1.50;0.55;;;;;;;21.83;31.11;100786.22;5014159;28;20022;-86
2021/05/18 15:50:08;;;;;;;4.78;3.83;;;;;;;22.04;31.40;100790.91;5007299;28;20029;-85
2021/05/18 15:52:34;;;;;;;2.28;1.95;;;;;;;21.93;32.50;100784.44;5010986;28;20013;-85
2021/05/18 15:55:00;;;;;;;2.45;1.45;;;;;;;22.55;31.11;100775.22;5010595;28;20032;-86
2021/05/18 15:57:25;;;;;;;4.18;0.80;;;;;;;22.78;30.60;100803.44;5010747;28;20022;-86
2021/05/18 15:59:51;;;;;;;3.72;2.78;;;;;;;22.31;31.87;100776.56;5026494;28;20026;-84
2021/05/18 16:02:17;;;;;;;2.97;2.25;;;;;;;20.37;34.24;100776.63;5010155;28;20041;-85
2021/05/18 16:04:42;;;;;;;2.67;0.68;;;;;;;19.25;37.30;100808.31;5026021;28;20052;-85
2021/05/18 16:07:10;;;;;;;2.10;0.70;;;;;;;18.21;39.12;100797.41;5020022;28;20100;-84
2021/05/18 16:09:35;;;;;;;2.80;2.17;;;;;;;17.66;41.09;100812.75;5028581;28;20101;-85
2021/05/18 16:12:00;;;;;;;3.65;2.45;;;;;;;17.96;42.37;100812.94;5013072;28;20108;-84
2021/05/18 16:14:26;;;;;;;3.10;1.35;;;;;;;18.06;42.15;100807.00;5010737;28;20060;-84
2021/05/18 16:16:51;;;;;;;1.98;1.38;;;;;;;17.64;43.75;100831.16;5010970;28;20028;-85
2021/05/18 16:19:17;;;;;;;2.95;0.60;;;;;;;17.09;45.62;100824.44;5029046;28;20043;-85
2021/05/18 16:21:43;;;;;;;4.38;0.90;;;;;;;16.64;46.73;100818.91;5026499;28;20022;-86
2021/05/18 16:24:09;;;;;;;1.38;0.70;;;;;;;16.26;48.63;100838.66;5027959;28;20083;-85
2021/05/18 16:26:34;;;;;;;2.20;1.13;;;;;;;16.01;51.67;100815.97;5007820;28;20022;-85
2021/05/18 16:29:01;;;;;;;3.10;1.67;;;;;;;17.25;50.98;100843.97;5022636;28;20404;-85
2021/05/18 16:31:28;;;;;;;2.42;0.70;;;;;;;18.99;45.50;100823.13;5026996;28;20021;-84